Time;durP1;ratioP1;P1;durP2;ratioP2;P2;SDS_P1;SDS_P2;PMS_P1;PMS_P2;Temp;Humidity;BMP_temperature;BMP_pressure;BME280_temperature;BME280_humidity;BME280_pressure;Samples;Min_cycle;Max_cycle;Signal;HPM_P1;HPM_P2
2021/12/07 00:01:57;;;;;;;21.87;11.67;;;0.30;99.90;0.00;100192.00;;;;5015240;27;87820;-68
2021/12/07 00:04:23;;;;;;;22.93;13.80;;;0.30;99.90;0.00;100190.00;;;;5016114;27;88740;-68
2021/12/07 00:06:49;;;;;;;22.77;11.50;;;1.10;99.90;0.00;100181.00;;;;5014188;27;118241;-67
2021/12/07 00:09:18;;;;;;;21.80;11.20;;;0.30;99.90;0.00;100176.00;;;;5016302;27;87727;-67
2021/12/07 00:11:48;;;;;;;21.57;13.07;;;0.30;99.90;0.00;100180.00;;;;5014198;27;87724;-67
2021/12/07 00:14:24;;;;;;;21.47;12.73;;;1.30;99.90;0.00;100172.00;;;;5014768;27;87817;-67
2021/12/07 00:16:53;;;;;;;22.27;12.43;;;0.50;99.90;0.10;100166.00;;;;5015740;27;88347;-67
2021/12/07 00:19:19;;;;;;;22.23;12.87;;;0.30;99.90;0.10;100173.00;;;;5015885;27;87573;-67
2021/12/07 00:21:45;;;;;;;23.20;13.70;;;0.40;99.90;0.00;100162.00;;;;5016249;27;87717;-67
2021/12/07 00:24:13;;;;;;;24.93;11.80;;;0.30;99.90;0.00;100175.00;;;;5011029;27;88836;-67
2021/12/07 00:26:41;;;;;;;20.40;12.70;;;0.30;99.90;0.00;100161.00;;;;4995975;27;89256;-66
2021/12/07 00:29:10;;;;;;;21.23;13.63;;;0.40;99.90;0.00;100161.00;;;;4995614;27;104098;-67
2021/12/07 00:31:42;;;;;;;25.73;13.17;;;0.30;99.90;0.00;100169.00;;;;4995313;27;87661;-66
2021/12/07 00:34:22;;;;;;;21.67;11.80;;;0.80;99.90;0.00;100167.00;;;;5016147;27;88249;-67
2021/12/07 00:36:49;;;;;;;18.20;11.80;;;0.20;99.90;-0.10;100164.00;;;;5001621;27;87827;-66
2021/12/07 00:39:20;;;;;;;20.23;13.27;;;0.20;99.90;-0.10;100167.00;;;;5015582;27;87829;-66
2021/12/07 00:41:47;;;;;;;16.53;11.73;;;0.20;99.90;-0.10;100161.00;;;;5015903;27;87122;-66
2021/12/07 00:44:13;;;;;;;25.60;11.30;;;0.20;99.90;-0.10;100163.00;;;;5015847;27;88245;-66
2021/12/07 00:46:39;;;;;;;21.47;12.77;;;0.10;99.90;-0.10;100156.00;;;;5012746;27;88552;-66
2021/12/07 00:49:05;;;;;;;23.03;11.77;;;0.20;99.90;-0.10;100154.00;;;;5014405;27;113107;-66
2021/12/07 00:51:31;;;;;;;22.30;12.30;;;0.70;99.90;-0.10;100147.00;;;;5013086;27;109797;-66
2021/12/07 00:53:57;;;;;;;22.17;12.70;;;0.20;99.90;-0.10;100149.00;;;;4996168;27;88085;-66
2021/12/07 00:56:23;;;;;;;22.83;12.60;;;0.30;99.90;-0.10;100149.00;;;;4995118;28;89000;-66
2021/12/07 00:58:51;;;;;;;19.63;13.70;;;0.20;99.90;-0.10;100138.00;;;;4995083;27;88194;-66
2021/12/07 01:01:19;;;;;;;21.63;13.10;;;0.80;99.90;-0.10;100128.00;;;;4995217;27;87665;-67
2021/12/07 01:03:46;;;;;;;28.23;13.97;;;0.20;99.90;-0.10;100135.00;;;;4996568;27;88038;-66
2021/12/07 01:09:03;;;;;;;21.77;12.33;;;0.20;99.90;-0.10;100137.00;;;;4994729;27;87768;-68
2021/12/07 01:25:26;;;;;;;18.70;11.83;;;0.20;99.90;-0.20;100108.00;;;;4991672;28;88013;-67
2021/12/07 01:27:54;;;;;;;16.53;11.50;;;0.10;99.90;-0.10;100099.00;;;;4994677;27;89055;-67
2021/12/07 01:30:34;;;;;;;22.90;13.10;;;0.10;99.90;-0.10;100094.00;;;;4994942;27;88136;-66
2021/12/07 01:33:17;;;;;;;18.57;10.67;;;0.20;99.90;-0.10;100095.00;;;;4994800;27;87146;-67
2021/12/07 02:00:00;;;;;;;23.87;13.30;;;0.20;99.90;-0.10;100070.00;;;;4991713;28;87005;-66
2021/12/07 02:02:28;;;;;;;17.50;11.10;;;0.20;99.90;-0.10;100069.00;;;;4993169;28;112822;-66
2021/12/07 02:04:56;;;;;;;25.47;12.60;;;0.20;99.90;-0.10;100059.00;;;;4994043;27;93664;-67
2021/12/07 02:07:23;;;;;;;21.13;12.80;;;0.20;99.90;-0.10;100059.00;;;;4994078;27;88937;-66
2021/12/07 02:09:54;;;;;;;21.87;13.90;;;0.20;99.90;-0.10;100059.00;;;;4993913;27;88928;-67
2021/12/07 02:12:21;;;;;;;21.40;13.53;;;0.10;99.90;-0.10;100054.00;;;;4992503;28;88059;-66
2021/12/07 02:14:47;;;;;;;20.90;12.60;;;0.20;99.90;-0.10;100049.00;;;;4994166;27;87672;-65
2021/12/07 02:17:21;;;;;;;23.33;12.00;;;0.20;99.90;-0.10;100046.00;;;;4992392;27;88367;-67
2021/12/07 02:19:47;;;;;;;27.20;13.07;;;0.10;99.90;-0.10;100024.00;;;;4994486;27;87967;-68
2021/12/07 02:22:13;;;;;;;24.53;14.23;;;0.20;99.90;-0.10;100017.00;;;;5010282;27;113408;-67
2021/12/07 02:24:39;;;;;;;17.43;11.20;;;0.20;99.90;-0.10;100019.00;;;;5017523;27;108294;-67
2021/12/07 02:27:06;;;;;;;21.60;12.40;;;0.10;99.90;-0.20;100010.00;;;;5016912;27;88888;-66
2021/12/07 02:29:32;;;;;;;21.50;12.23;;;0.20;99.90;-0.20;100018.00;;;;5016786;27;116795;-66
2021/12/07 02:31:59;;;;;;;21.63;11.87;;;0.30;99.90;-0.20;100009.00;;;;5016359;27;103368;-66
2021/12/07 02:34:25;;;;;;;23.37;12.40;;;0.20;99.90;-0.30;100007.00;;;;5005950;27;87677;-66
2021/12/07 02:36:55;;;;;;;22.57;11.83;;;0.60;99.90;-0.30;100017.00;;;;4997852;27;88806;-66
2021/12/07 02:39:36;;;;;;;21.37;10.87;;;0.00;99.90;-0.40;100012.00;;;;4997032;27;106676;-68
2021/12/07 02:42:05;;;;;;;21.83;12.00;;;0.00;99.90;-0.40;100017.00;;;;4997900;27;87860;-66
2021/12/07 02:44:33;;;;;;;19.63;11.40;;;0.80;99.90;-0.40;100030.00;;;;5008554;27;87861;-66
2021/12/07 02:46:58;;;;;;;19.17;11.17;;;-0.10;99.90;-0.40;100033.00;;;;4981205;28;89579;-66
2021/12/07 02:49:24;;;;;;;18.37;9.80;;;-0.10;99.90;-0.50;100035.00;;;;5013030;27;87187;-66
2021/12/07 02:51:50;;;;;;;18.60;10.87;;;-0.10;99.90;-0.50;100034.00;;;;5017821;27;87890;-67
2021/12/07 02:54:17;;;;;;;15.77;10.83;;;-0.10;99.90;-0.50;100048.00;;;;5007403;27;87917;-67
2021/12/07 02:56:43;;;;;;;23.07;12.20;;;-0.20;99.90;-0.50;100050.00;;;;4996977;27;89089;-67
2021/12/07 02:59:10;;;;;;;15.20;9.33;;;0.20;99.90;-0.50;100049.00;;;;4996906;27;89592;-67
2021/12/07 03:01:42;;;;;;;18.63;11.63;;;-0.10;99.90;-0.50;100042.00;;;;4998997;27;87498;-67
2021/12/07 03:04:13;;;;;;;21.70;10.13;;;-0.20;99.90;-0.50;100027.00;;;;4997071;27;87544;-67
2021/12/07 03:25:46;;;;;;;20.37;12.07;;;-0.20;99.90;-0.50;100025.00;;;;4994270;27;87734;-66
2021/12/07 03:26:23;;;;;;;13.67;9.70;;;-0.60;99.90;-0.60;100021.00;;;;5014771;27;87557;-65
2021/12/07 03:28:53;;;;;;;13.37;8.87;;;-0.30;99.90;-0.70;100015.00;;;;4997798;27;89748;-65
2021/12/07 03:31:20;;;;;;;17.07;10.47;;;0.30;99.90;-0.70;100020.00;;;;4997324;27;87462;-67
2021/12/07 03:33:47;;;;;;;14.43;10.30;;;-0.10;99.90;-0.70;100020.00;;;;4997854;27;87461;-66
2021/12/07 03:36:14;;;;;;;18.70;9.30;;;0.70;99.90;-0.80;100016.00;;;;5011190;27;87461;-65
2021/12/07 03:38:41;;;;;;;18.07;10.43;;;-0.40;99.90;-0.80;100013.00;;;;4999811;27;87480;-66
2021/12/07 03:41:08;;;;;;;16.90;10.60;;;-0.40;99.90;-0.90;100005.00;;;;5016602;27;88080;-66
2021/12/07 03:43:34;;;;;;;19.43;10.93;;;-0.50;99.90;-0.90;100009.00;;;;5009856;27;87600;-66
2021/12/07 03:46:01;;;;;;;13.00;9.43;;;-0.60;99.90;-1.00;100008.00;;;;4994535;28;87524;-66
2021/12/07 03:48:27;;;;;;;14.90;9.87;;;-0.70;99.90;-1.00;100019.00;;;;4997776;27;89869;-67
2021/12/07 03:50:53;;;;;;;19.60;10.97;;;-0.60;99.90;-1.00;100008.00;;;;5016257;27;90076;-66
2021/12/07 03:53:19;;;;;;;14.33;9.97;;;-0.70;99.90;-0.90;100015.00;;;;5015916;27;87791;-66
2021/12/07 03:55:45;;;;;;;15.10;9.90;;;-0.70;99.90;-0.90;100034.00;;;;5014897;27;108322;-66
2021/12/07 03:58:11;;;;;;;14.83;9.97;;;-0.60;99.90;-0.90;100036.00;;;;5014157;27;107345;-66
2021/12/07 04:00:44;;;;;;;17.07;10.03;;;-0.60;99.90;-0.80;100033.00;;;;5014702;27;88229;-66
2021/12/07 04:03:13;;;;;;;18.17;11.23;;;-0.50;99.90;-0.80;100026.00;;;;5015715;27;87489;-67
2021/12/07 04:05:48;;;;;;;19.23;11.27;;;-0.40;99.90;-0.70;100036.00;;;;5015756;27;87193;-66
2021/12/07 04:08:18;;;;;;;13.67;9.07;;;-0.40;99.90;-0.70;100024.00;;;;4996737;27;87771;-66
2021/12/07 04:10:44;;;;;;;16.77;9.60;;;-0.40;99.90;-0.70;100019.00;;;;4995787;27;109077;-67
2021/12/07 04:13:11;;;;;;;16.97;10.47;;;-0.40;99.90;-0.70;100016.00;;;;4994430;27;88757;-66
2021/12/07 04:15:37;;;;;;;15.20;9.17;;;-0.40;99.90;-0.70;100004.00;;;;5006597;27;87691;-66
2021/12/07 04:18:04;;;;;;;19.67;10.43;;;-0.40;99.90;-0.70;100010.00;;;;5015162;27;110603;-67
2021/12/07 04:20:31;;;;;;;13.67;8.13;;;-0.40;99.90;-0.80;100005.00;;;;5015467;27;88144;-67
2021/12/07 04:22:57;;;;;;;17.97;10.97;;;0.10;99.90;-0.90;100016.00;;;;5017359;27;88038;-67
2021/12/07 04:25:23;;;;;;;13.43;8.50;;;0.40;99.90;-0.90;100019.00;;;;4996121;27;94476;-67
2021/12/07 04:27:51;;;;;;;16.67;9.33;;;-0.30;99.90;-1.00;100011.00;;;;4995682;28;88556;-65
2021/12/07 04:30:30;;;;;;;14.33;9.07;;;-0.50;99.90;-1.10;100010.00;;;;4996440;27;108241;-67
2021/12/07 04:32:57;;;;;;;14.37;9.77;;;-0.60;99.90;-1.10;100005.00;;;;4993600;28;87792;-67
2021/12/07 04:35:25;;;;;;;17.07;10.67;;;-0.70;99.90;-1.10;100003.00;;;;5002777;27;93313;-67
2021/12/07 04:37:51;;;;;;;15.40;9.57;;;-0.20;99.90;-1.20;99997.00;;;;4994581;27;89074;-67
2021/12/07 04:40:25;;;;;;;20.50;9.93;;;-0.80;99.90;-1.20;100001.00;;;;4995829;27;97490;-67
2021/12/07 04:42:52;;;;;;;14.60;8.63;;;-0.80;99.90;-1.20;99990.00;;;;4995607;27;87778;-67
2021/12/07 04:48:02;;;;;;;16.80;9.53;;;-0.80;99.90;-1.20;100001.00;;;;4995230;27;87984;-68
2021/12/07 04:50:44;;;;;;;16.40;8.77;;;-0.90;99.90;-1.20;100001.00;;;;4996100;28;87892;-67
2021/12/07 04:58:38;;;;;;;11.20;8.27;;;-0.90;99.90;-1.30;99986.00;;;;4996366;27;87926;-66
2021/12/07 05:01:10;;;;;;;14.43;8.83;;;-1.00;99.90;-1.30;99988.00;;;;4996219;27;117821;-65
2021/12/07 05:03:39;;;;;;;16.20;9.53;;;-0.80;99.90;-1.40;99992.00;;;;5010544;27;88733;-66
2021/12/07 05:06:08;;;;;;;23.00;9.90;;;-1.00;99.90;-1.40;99980.00;;;;5015368;27;87721;-67
2021/12/07 05:13:39;;;;;;;16.30;10.30;;;-1.00;99.90;-1.40;99991.00;;;;5012300;27;87706;-67
2021/12/07 05:24:18;;;;;;;15.57;8.40;;;-1.20;99.90;-1.60;99966.00;;;;5012165;27;87659;-67
2021/12/07 05:37:55;;;;;;;10.27;7.70;;;-0.40;99.90;-1.80;99986.00;;;;5014872;27;88072;-67
2021/12/07 05:40:34;;;;;;;18.47;8.00;;;-1.40;99.90;-1.90;100002.00;;;;5012458;27;88303;-66
2021/12/07 05:43:01;;;;;;;11.77;8.00;;;-1.40;99.90;-1.90;99994.00;;;;5012975;27;90521;-66
2021/12/07 05:45:34;;;;;;;11.97;8.53;;;-0.80;99.90;-1.90;99992.00;;;;4998245;27;87654;-65
2021/12/07 05:48:03;;;;;;;11.87;8.13;;;-1.50;99.90;-2.00;99997.00;;;;5015564;27;87093;-67
2021/12/07 05:50:32;;;;;;;15.60;9.03;;;-1.60;99.90;-2.00;100005.00;;;;4994798;27;103904;-67
2021/12/07 05:52:58;;;;;;;15.80;8.80;;;-1.60;99.90;-2.00;100004.00;;;;4994109;27;109839;-66
2021/12/07 05:55:25;;;;;;;12.93;8.03;;;-1.60;99.90;-2.10;99999.00;;;;4995924;27;88822;-67
2021/12/07 05:57:51;;;;;;;12.93;8.03;;;-1.70;99.90;-2.10;100004.00;;;;4999628;27;87941;-66
2021/12/07 06:00:26;;;;;;;15.73;10.10;;;-1.60;99.90;-2.10;99997.00;;;;4998834;27;88249;-66
2021/12/07 06:02:55;;;;;;;14.20;8.60;;;-1.70;99.90;-2.10;100006.00;;;;4998065;27;87895;-66
2021/12/07 06:05:23;;;;;;;15.00;8.17;;;-1.70;99.90;-2.10;99995.00;;;;4996502;27;87883;-66
2021/12/07 06:07:49;;;;;;;13.27;9.90;;;-1.10;99.90;-2.10;99992.00;;;;4998164;28;87898;-66
2021/12/07 06:10:15;;;;;;;13.47;8.40;;;-1.70;99.90;-2.10;100004.00;;;;4998048;27;111153;-65
2021/12/07 06:12:40;;;;;;;14.10;9.47;;;-1.90;99.90;-2.20;100016.00;;;;4998389;28;87744;-66
2021/12/07 06:15:07;;;;;;;17.47;8.70;;;-1.80;99.90;-2.20;100015.00;;;;5015256;27;108067;-65
2021/12/07 06:17:33;;;;;;;18.03;10.00;;;-1.80;99.90;-2.20;100020.00;;;;5017949;27;92320;-66
2021/12/07 06:19:59;;;;;;;14.67;8.77;;;-1.70;99.90;-2.20;100024.00;;;;5015251;27;118260;-66
2021/12/07 06:22:25;;;;;;;16.93;9.43;;;-1.80;99.90;-2.10;100017.00;;;;5016860;27;119048;-66
2021/12/07 06:24:50;;;;;;;12.20;8.33;;;-1.80;99.90;-2.10;100021.00;;;;5002618;27;110136;-65
2021/12/07 06:27:16;;;;;;;15.00;9.33;;;-1.70;99.90;-2.10;100022.00;;;;5002696;27;99590;-65
2021/12/07 06:29:43;;;;;;;15.40;9.93;;;-1.70;99.90;-2.00;100015.00;;;;4998354;27;118362;-67
2021/12/07 06:32:09;;;;;;;14.07;9.33;;;-1.60;99.90;-2.00;100022.00;;;;4997967;27;88220;-65
2021/12/07 06:34:36;;;;;;;13.50;9.40;;;-1.60;99.90;-1.90;100015.00;;;;5002205;27;88120;-66
2021/12/07 06:37:03;;;;;;;17.50;9.93;;;-1.50;99.90;-1.90;100019.00;;;;5014923;27;94051;-65
2021/12/07 06:39:29;;;;;;;18.00;9.57;;;-1.60;99.90;-1.90;100022.00;;;;4997839;27;88985;-65
2021/12/07 06:41:55;;;;;;;17.43;9.50;;;-1.80;99.90;-1.90;100020.00;;;;4999230;27;88085;-64
2021/12/07 06:44:20;;;;;;;15.23;9.67;;;-1.40;99.90;-1.90;100025.00;;;;4996555;28;110482;-66
2021/12/07 06:46:48;;;;;;;13.37;8.53;;;-1.50;99.90;-1.90;100017.00;;;;4997739;28;108275;-64
2021/12/07 06:49:15;;;;;;;14.33;9.40;;;-1.50;99.90;-1.90;100021.00;;;;4997624;27;87908;-66
2021/12/07 06:51:41;;;;;;;13.97;9.67;;;-1.60;99.90;-1.90;100020.00;;;;4997482;27;88967;-65
2021/12/07 06:54:07;;;;;;;19.60;10.23;;;-1.60;99.90;-1.90;100026.00;;;;5008769;27;88110;-67
2021/12/07 06:56:33;;;;;;;17.07;10.40;;;-1.60;99.90;-2.00;100029.00;;;;5016267;27;108687;-66
2021/12/07 06:58:59;;;;;;;17.17;9.73;;;-1.50;99.90;-2.00;100036.00;;;;5014558;27;117677;-65
2021/12/07 07:01:25;;;;;;;13.80;8.83;;;-1.60;99.90;-2.00;100024.00;;;;5018202;27;89047;-65
2021/12/07 07:03:51;;;;;;;15.47;11.00;;;-1.60;99.90;-2.10;100030.00;;;;5017650;27;87754;-66
2021/12/07 07:06:17;;;;;;;16.57;9.97;;;-1.60;99.90;-2.10;100020.00;;;;5012527;27;90541;-65
2021/12/07 07:08:43;;;;;;;12.03;9.20;;;-0.70;99.90;-2.10;100025.00;;;;4993538;27;89750;-65
2021/12/07 07:11:09;;;;;;;15.67;10.57;;;-1.60;99.90;-2.10;100028.00;;;;4993953;27;89046;-65
2021/12/07 07:13:34;;;;;;;15.67;10.23;;;-1.70;99.90;-2.10;100032.00;;;;4998102;27;87920;-66
2021/12/07 07:16:01;;;;;;;10.70;8.73;;;-1.70;99.90;-2.10;100045.00;;;;4993979;27;107840;-64
2021/12/07 07:18:27;;;;;;;14.43;9.63;;;-1.70;99.90;-2.10;100037.00;;;;4997638;27;88146;-66
2021/12/07 07:20:55;;;;;;;16.93;9.73;;;-1.60;99.90;-2.00;100040.00;;;;4997675;27;88957;-65
2021/12/07 07:23:23;;;;;;;15.93;10.40;;;-1.70;99.90;-1.90;100043.00;;;;4994472;27;87784;-64
2021/12/07 07:25:49;;;;;;;19.37;10.93;;;-1.40;99.90;-1.90;100051.00;;;;4996356;27;87403;-65
2021/12/07 07:28:15;;;;;;;21.43;11.23;;;-1.60;99.90;-1.70;100046.00;;;;4995093;27;89164;-66
2021/12/07 07:30:41;;;;;;;19.47;12.77;;;-1.40;99.90;-1.60;100040.00;;;;4994225;27;116810;-64
2021/12/07 07:33:07;;;;;;;19.93;12.83;;;-1.30;99.90;-1.50;100046.00;;;;5007631;27;111309;-67
2021/12/07 07:35:33;;;;;;;26.30;13.00;;;-1.20;99.90;-1.40;100053.00;;;;4998457;27;87832;-65
2021/12/07 07:38:00;;;;;;;19.07;11.93;;;-1.10;99.90;-1.30;100040.00;;;;4994851;27;88265;-64
2021/12/07 07:40:27;;;;;;;15.87;10.60;;;-1.00;99.90;-1.20;100046.00;;;;4993879;27;88560;-63
2021/12/07 07:42:52;;;;;;;20.17;12.37;;;-0.90;99.90;-1.10;100044.00;;;;4987070;27;93008;-65
2021/12/07 07:45:19;;;;;;;17.97;11.53;;;-0.70;99.90;-1.10;100060.00;;;;5001018;27;87796;-64
2021/12/07 07:47:45;;;;;;;21.87;12.63;;;-0.60;99.90;-1.00;100058.00;;;;4994145;27;88749;-65
2021/12/07 07:50:13;;;;;;;18.03;10.83;;;-0.70;99.90;-0.90;100065.00;;;;4993304;27;108317;-66
2021/12/07 07:52:40;;;;;;;18.77;10.83;;;-0.30;99.90;-0.90;100065.00;;;;4992918;27;87757;-66
2021/12/07 07:55:07;;;;;;;19.67;11.53;;;-0.50;99.90;-0.80;100066.00;;;;4994143;27;99612;-67
2021/12/07 07:57:33;;;;;;;20.73;10.80;;;-0.50;99.90;-0.70;100064.00;;;;4991494;27;106102;-63
2021/12/07 08:00:00;;;;;;;17.63;11.70;;;-0.20;99.90;-0.60;100063.00;;;;5001689;27;107257;-65
2021/12/07 08:02:25;;;;;;;25.87;12.60;;;-0.40;99.90;-0.50;100066.00;;;;4996878;27;102273;-66
2021/12/07 08:04:51;;;;;;;22.77;12.33;;;-0.20;99.90;-0.30;100073.00;;;;4991963;27;98373;-65
2021/12/07 08:07:17;;;;;;;26.63;12.83;;;-0.10;99.90;-0.20;100065.00;;;;4992722;27;88940;-64
2021/12/07 08:09:42;;;;;;;21.20;12.03;;;0.10;99.90;0.00;100067.00;;;;4991235;27;117841;-66
2021/12/07 08:12:08;;;;;;;27.77;13.17;;;0.20;99.90;0.20;100065.00;;;;4992968;27;87841;-67
2021/12/07 08:14:34;;;;;;;22.70;12.13;;;0.40;99.90;0.40;100070.00;;;;4995731;27;87387;-67
2021/12/07 08:17:00;;;;;;;21.53;12.23;;;1.30;99.90;0.50;100066.00;;;;4994274;27;117133;-66
2021/12/07 08:19:26;;;;;;;22.00;12.27;;;0.90;99.90;0.70;100075.00;;;;4988950;27;89466;-66
2021/12/07 08:21:52;;;;;;;23.93;11.73;;;0.90;99.90;0.90;100067.00;;;;4991202;27;112591;-64
2021/12/07 08:24:17;;;;;;;21.63;12.40;;;1.10;99.90;1.10;100066.00;;;;4999425;27;109858;-64
2021/12/07 08:26:44;;;;;;;18.10;11.83;;;1.30;99.90;1.30;100063.00;;;;4992715;27;118453;-65
2021/12/07 08:29:09;;;;;;;27.77;11.93;;;1.60;99.90;1.50;100067.00;;;;4992093;27;88064;-64
2021/12/07 08:31:35;;;;;;;16.53;10.17;;;1.60;99.90;1.70;100065.00;;;;4992309;27;112138;-65
2021/12/07 08:34:01;;;;;;;24.97;10.23;;;1.80;99.90;1.90;100076.00;;;;4992826;27;87783;-66
2021/12/07 08:36:28;;;;;;;15.07;10.87;;;2.00;99.90;2.10;100080.00;;;;4992990;27;87779;-66
2021/12/07 08:38:54;;;;;;;18.80;11.90;;;2.10;99.90;2.30;100085.00;;;;4992453;27;88891;-65
2021/12/07 08:41:20;;;;;;;23.57;12.13;;;2.40;99.90;2.50;100083.00;;;;4992301;27;88094;-66
2021/12/07 08:43:46;;;;;;;19.77;11.63;;;2.60;99.90;2.70;100085.00;;;;4992239;27;87599;-66
2021/12/07 08:46:15;;;;;;;19.77;10.23;;;2.80;99.90;2.90;100092.00;;;;4992830;27;90493;-67
2021/12/07 08:48:43;;;;;;;14.70;10.17;;;3.00;99.90;3.10;100100.00;;;;4995045;27;110433;-65
2021/12/07 08:51:11;;;;;;;20.90;11.93;;;3.20;99.90;3.20;100090.00;;;;4994559;27;87835;-64
2021/12/07 08:53:44;;;;;;;20.67;11.10;;;3.40;99.90;3.40;100093.00;;;;4991900;27;93607;-66
2021/12/07 09:01:39;;;;;;;19.20;10.53;;;3.80;99.90;3.80;100091.00;;;;4989173;27;87926;-64
2021/12/07 09:04:05;;;;;;;14.70;9.47;;;4.10;99.90;4.00;100096.00;;;;4992890;27;99875;-63
2021/12/07 09:06:32;;;;;;;22.60;11.03;;;4.90;99.90;4.20;100096.00;;;;4997423;27;105171;-64
2021/12/07 09:08:58;;;;;;;15.37;8.93;;;4.40;99.90;4.20;100104.00;;;;4991538;27;88101;-65
2021/12/07 09:11:25;;;;;;;15.37;8.80;;;4.40;99.90;4.30;100101.00;;;;4997674;27;113055;-65
2021/12/07 09:13:51;;;;;;;17.10;9.53;;;4.40;99.90;4.40;100104.00;;;;4994182;27;101535;-66
2021/12/07 09:16:20;;;;;;;14.60;8.83;;;4.50;99.90;4.40;100107.00;;;;4997675;27;89313;-65
2021/12/07 09:18:46;;;;;;;16.30;10.40;;;4.50;99.90;4.50;100108.00;;;;4991856;27;88075;-64
2021/12/07 09:21:12;;;;;;;15.93;10.33;;;4.60;99.90;4.70;100103.00;;;;4991967;27;87919;-66
2021/12/07 09:23:38;;;;;;;20.93;10.37;;;4.70;99.90;4.90;100097.00;;;;4992156;27;88026;-65
2021/12/07 09:26:05;;;;;;;18.23;9.67;;;4.80;99.90;5.10;100100.00;;;;4990769;27;108392;-65
2021/12/07 09:28:31;;;;;;;14.40;9.77;;;5.00;99.90;5.40;100101.00;;;;4992522;27;87942;-67
2021/12/07 09:30:57;;;;;;;21.00;10.97;;;5.40;99.90;5.60;100104.00;;;;4994884;27;103229;-66
2021/12/07 09:33:27;;;;;;;15.87;8.97;;;5.60;99.90;5.80;100099.00;;;;4994999;27;91664;-66
2021/12/07 09:35:54;;;;;;;17.07;8.60;;;5.70;99.90;5.80;100109.00;;;;5001318;27;88801;-64
2021/12/07 09:38:22;;;;;;;15.03;10.33;;;5.80;99.90;5.80;100105.00;;;;4995408;27;89162;-65
2021/12/07 09:40:49;;;;;;;14.47;8.53;;;5.80;99.90;5.90;100111.00;;;;4998934;27;87598;-66
2021/12/07 09:43:15;;;;;;;15.03;8.30;;;5.90;99.90;5.90;100101.00;;;;4996145;27;87741;-66
2021/12/07 09:45:43;;;;;;;15.53;7.97;;;5.90;99.90;5.90;100111.00;;;;4994756;27;108185;-67
2021/12/07 09:48:11;;;;;;;15.87;7.87;;;5.90;99.90;6.00;100113.00;;;;4995912;27;87902;-67
2021/12/07 09:50:41;;;;;;;10.30;6.17;;;5.90;99.90;6.00;100108.00;;;;4996464;27;88016;-68
2021/12/07 09:53:10;;;;;;;14.60;8.30;;;6.00;99.90;6.00;100105.00;;;;4995893;27;93821;-68
2021/12/07 09:55:38;;;;;;;11.87;6.77;;;6.10;99.90;5.90;100111.00;;;;4994314;27;88026;-67
2021/12/07 09:58:05;;;;;;;10.87;6.73;;;6.60;99.40;5.60;100115.00;;;;4994764;27;88550;-67
2021/12/07 10:00:31;;;;;;;9.73;6.13;;;5.70;97.90;5.30;100109.00;;;;4995675;27;88750;-69
2021/12/07 10:02:57;;;;;;;10.23;7.03;;;5.50;97.50;5.00;100112.00;;;;4997804;27;87841;-68
2021/12/07 10:05:25;;;;;;;12.77;7.33;;;5.20;97.80;4.70;100115.00;;;;4994074;27;113048;-66
2021/12/07 10:07:52;;;;;;;14.17;8.23;;;4.90;98.80;4.40;100116.00;;;;4994930;27;109359;-67
2021/12/07 10:10:38;;;;;;;11.97;7.10;;;4.70;99.90;4.20;100105.00;;;;4996645;27;87663;-66
2021/12/07 10:13:07;;;;;;;9.40;6.43;;;4.50;99.90;4.10;100106.00;;;;4993383;27;88164;-67
2021/12/07 10:15:33;;;;;;;10.43;6.67;;;4.80;99.90;4.00;100093.00;;;;4995679;27;88220;-66
2021/12/07 10:18:13;;;;;;;16.03;8.43;;;5.00;99.90;3.80;100103.00;;;;4994999;27;89095;-68
2021/12/07 10:20:49;;;;;;;11.30;7.10;;;4.60;99.90;3.70;100100.00;;;;4993466;27;87912;-68
2021/12/07 10:23:19;;;;;;;12.97;7.47;;;3.80;99.90;3.50;100102.00;;;;4994888;27;87759;-68
2021/12/07 10:26:20;;;;;;;11.00;6.80;;;3.80;99.90;3.40;100108.00;;;;4993761;27;88946;-67
2021/12/07 10:28:47;;;;;;;10.47;6.77;;;3.70;99.90;3.30;100105.00;;;;4993042;27;88085;-69
2021/12/07 10:31:31;;;;;;;11.87;7.13;;;3.50;99.90;3.30;100101.00;;;;4995897;27;87846;-68
2021/12/07 10:34:06;;;;;;;12.27;6.50;;;3.50;99.90;3.10;100102.00;;;;4994697;27;87807;-66
2021/12/07 10:36:45;;;;;;;13.20;7.67;;;3.30;99.90;3.00;100093.00;;;;5002154;27;88153;-68
2021/12/07 10:39:27;;;;;;;10.53;7.20;;;3.20;99.90;3.00;100093.00;;;;5005357;27;88028;-67
2021/12/07 10:41:58;;;;;;;11.90;7.47;;;3.20;99.90;3.00;100093.00;;;;4993436;27;103371;-68
2021/12/07 10:44:33;;;;;;;10.67;6.57;;;3.10;99.90;2.90;100094.00;;;;5002532;27;87039;-69
2021/12/07 10:47:13;;;;;;;12.80;8.13;;;3.20;99.90;2.90;100088.00;;;;4994019;27;106207;-68
2021/12/07 10:50:01;;;;;;;13.87;8.47;;;3.10;99.90;2.90;100098.00;;;;4994729;27;87814;-66
2021/12/07 10:52:45;;;;;;;14.77;8.30;;;3.70;99.90;2.80;100083.00;;;;4994552;27;88747;-68
2021/12/07 10:55:26;;;;;;;14.33;7.77;;;3.00;99.90;2.80;100081.00;;;;4992291;27;87637;-69
2021/12/07 10:58:07;;;;;;;14.23;8.10;;;3.00;99.90;2.70;100085.00;;;;4992551;27;88065;-69
2021/12/07 11:00:46;;;;;;;11.87;8.03;;;2.70;99.90;2.70;100082.00;;;;4994986;27;87813;-66
2021/12/07 11:03:18;;;;;;;15.00;8.77;;;2.90;99.90;2.70;100084.00;;;;4996039;27;88110;-68
2021/12/07 11:05:54;;;;;;;14.13;8.47;;;2.90;99.90;2.70;100088.00;;;;4994725;27;87951;-67
2021/12/07 11:08:25;;;;;;;14.70;8.67;;;2.90;99.90;2.70;100083.00;;;;5001646;27;88603;-68
2021/12/07 11:10:52;;;;;;;14.53;8.83;;;2.90;99.90;2.70;100082.00;;;;4993854;27;87995;-68
2021/12/07 11:13:25;;;;;;;15.90;8.80;;;3.60;99.90;2.60;100086.00;;;;4992885;27;87951;-68
2021/12/07 11:15:56;;;;;;;14.27;8.47;;;2.80;99.90;2.60;100083.00;;;;4994756;27;87779;-68
2021/12/07 11:18:31;;;;;;;13.20;8.03;;;2.70;99.90;2.60;100078.00;;;;4998647;27;90377;-67
2021/12/07 11:21:02;;;;;;;18.27;9.60;;;2.80;99.90;2.60;100067.00;;;;4994409;27;89131;-68
2021/12/07 11:23:39;;;;;;;12.77;7.87;;;2.80;99.90;2.70;100076.00;;;;4993444;27;93106;-67
2021/12/07 11:31:36;;;;;;;15.53;8.77;;;2.80;99.90;2.70;100083.00;;;;4997304;27;87977;-69
2021/12/07 11:34:09;;;;;;;12.03;8.10;;;2.90;99.90;2.70;100075.00;;;;4992233;27;87759;-68
2021/12/07 11:36:43;;;;;;;19.13;9.40;;;2.90;99.90;2.70;100068.00;;;;4994510;27;87217;-69
2021/12/07 11:39:27;;;;;;;12.80;8.40;;;2.80;99.90;2.70;100084.00;;;;4993729;27;88251;-68
2021/12/07 11:42:21;;;;;;;12.77;8.17;;;2.90;99.90;3.00;100076.00;;;;4993828;27;87731;-68
2021/12/07 11:45:07;;;;;;;20.43;10.40;;;3.10;99.90;3.40;100068.00;;;;4993570;27;88848;-66
2021/12/07 11:47:39;;;;;;;17.10;10.03;;;3.40;99.90;3.80;100068.00;;;;4993409;27;88000;-69
2021/12/07 11:50:35;;;;;;;17.93;9.87;;;3.80;99.90;4.00;100057.00;;;;4992485;27;88700;-69
2021/12/07 11:53:21;;;;;;;12.53;8.23;;;4.00;99.90;4.30;100061.00;;;;4989927;27;89276;-67
2021/12/07 11:55:51;;;;;;;16.63;8.87;;;4.30;99.90;4.60;100061.00;;;;4993641;27;87752;-68
2021/12/07 11:58:17;;;;;;;20.17;9.77;;;5.20;99.90;4.80;100057.00;;;;4995587;27;91460;-68
2021/12/07 12:00:49;;;;;;;15.40;8.93;;;4.70;99.90;5.00;100055.00;;;;4991574;27;93874;-69
2021/12/07 12:03:21;;;;;;;11.47;8.17;;;4.90;99.90;5.20;100059.00;;;;4993502;27;89299;-70
2021/12/07 12:05:48;;;;;;;17.50;9.07;;;5.20;99.90;5.30;100052.00;;;;4994192;27;87933;-69
2021/12/07 12:08:18;;;;;;;16.33;8.60;;;5.30;99.90;5.50;100076.00;;;;4993264;27;91684;-67
2021/12/07 12:10:57;;;;;;;18.20;8.37;;;6.20;99.90;5.70;100070.00;;;;4995530;27;90037;-69
2021/12/07 12:14:11;;;;;;;14.33;7.87;;;5.50;99.90;6.00;100080.00;;;;4992894;27;88747;-69
2021/12/07 12:16:50;;;;;;;15.77;8.33;;;5.90;99.90;6.10;100076.00;;;;4967624;27;88039;-69
2021/12/07 12:19:49;;;;;;;15.10;8.13;;;6.00;99.90;6.30;100065.00;;;;4993572;27;87795;-69
2021/12/07 12:22:38;;;;;;;13.90;8.13;;;6.20;99.90;6.50;100064.00;;;;4973609;27;102253;-69
2021/12/07 12:25:14;;;;;;;17.23;8.30;;;6.40;99.90;6.60;100064.00;;;;4988733;27;87880;-69
2021/12/07 12:27:42;;;;;;;16.47;7.97;;;6.50;99.90;6.70;100065.00;;;;4991965;27;91228;-69
2021/12/07 12:30:24;;;;;;;13.50;8.47;;;6.60;99.80;6.80;100070.00;;;;4993422;27;87286;-68
2021/12/07 12:32:56;;;;;;;15.07;7.80;;;6.70;99.70;6.90;100077.00;;;;4998603;27;88147;-68
2021/12/07 12:35:48;;;;;;;17.83;9.03;;;6.90;99.60;7.10;100088.00;;;;4992537;27;88108;-69